createdAt,value
2019-04-07T00:00:41.004Z,53.67
2019-04-07T00:01:49.215Z,53.87
2019-04-07T00:02:53.567Z,54.50
2019-04-07T00:03:58.548Z,52.53
2019-04-07T00:05:11.162Z,53.57
2019-04-07T00:06:09.659Z,53.57
2019-04-07T00:07:14.741Z,53.67
2019-04-07T00:08:19.248Z,53.47
2019-04-07T00:09:23.575Z,54.53
2019-04-07T00:10:28.664Z,52.23
2019-04-07T00:11:33.521Z,54.80
2019-04-07T00:12:37.920Z,55.00
2019-04-07T00:13:42.413Z,54.27
2019-04-07T00:14:46.866Z,56.33
2019-04-07T00:15:51.268Z,55.73
2019-04-07T00:16:55.879Z,57.10
2019-04-07T00:18:00.577Z,56.60
2019-04-07T00:19:05.464Z,59.57
2019-04-07T00:20:10.051Z,61.23
2019-04-07T00:21:14.592Z,60.00
2019-04-07T00:22:19.942Z,60.07
2019-04-07T00:23:24.416Z,60.37
2019-04-07T00:24:28.871Z,59.97
2019-04-07T00:25:33.332Z,60.57
2019-04-07T00:26:37.807Z,60.20
2019-04-07T00:27:42.219Z,64.00
2019-04-07T00:28:46.591Z,62.43
2019-04-07T00:29:51.078Z,61.00
2019-04-07T00:30:55.611Z,63.13
2019-04-07T00:32:00.133Z,64.97
2019-04-07T00:33:05.147Z,65.97
2019-04-07T00:34:09.681Z,64.13
2019-04-07T00:35:23.259Z,67.90
2019-04-07T00:36:20.692Z,63.50
2019-04-07T00:37:25.160Z,66.70
2019-04-07T00:38:29.620Z,68.53
2019-04-07T00:39:34.572Z,66.77
2019-04-07T00:40:39.264Z,67.90
2019-04-07T00:41:43.859Z,66.17
2019-04-07T00:42:48.222Z,67.37
2019-04-07T00:43:52.718Z,67.33
2019-04-07T00:44:57.184Z,68.30
2019-04-07T00:46:02.346Z,68.10
2019-04-07T00:47:07.378Z,71.30
2019-04-07T00:48:13.676Z,68.70
2019-04-07T00:49:18.260Z,68.83
2019-04-07T00:50:22.943Z,71.07
2019-04-07T00:51:27.648Z,68.90
2019-04-07T00:52:32.672Z,72.43
2019-04-07T00:53:37.531Z,70.67
2019-04-07T00:54:43.214Z,74.77
2019-04-07T00:55:47.823Z,72.03
2019-04-07T00:56:52.211Z,71.50
2019-04-07T00:57:57.152Z,72.37
2019-04-07T00:59:02.654Z,74.13
2019-04-07T01:00:09.632Z,73.57
2019-04-07T01:01:16.877Z,72.87
2019-04-07T01:02:21.362Z,70.67
2019-04-07T01:03:26.001Z,71.87
2019-04-07T01:04:30.697Z,76.43
2019-04-07T01:05:38.882Z,70.40
2019-04-07T01:06:42.207Z,67.97
2019-04-07T01:07:46.759Z,69.67
2019-04-07T01:08:51.499Z,71.50
2019-04-07T01:09:56.084Z,71.43
2019-04-07T01:11:00.538Z,71.83
2019-04-07T01:12:05.073Z,73.73
2019-04-07T01:13:09.574Z,69.17
2019-04-07T01:14:13.993Z,70.87
2019-04-07T01:15:18.632Z,68.43
2019-04-07T01:16:23.212Z,68.37
2019-04-07T01:17:27.927Z,67.97
2019-04-07T01:18:34.101Z,70.40
2019-04-07T01:19:38.673Z,67.07
2019-04-07T01:20:43.077Z,68.03
2019-04-07T01:21:47.756Z,64.40
2019-04-07T01:22:52.934Z,68.20
2019-04-07T01:23:57.838Z,67.60
2019-04-07T01:25:02.631Z,65.13
2019-04-07T01:26:07.457Z,64.40
2019-04-07T01:27:12.533Z,66.13
2019-04-07T01:28:17.776Z,64.80
2019-04-07T01:29:22.123Z,64.97
2019-04-07T01:30:27.200Z,63.40
2019-04-07T01:31:31.624Z,62.67
2019-04-07T01:32:36.707Z,64.43
2019-04-07T01:33:41.613Z,61.07
2019-04-07T01:34:46.865Z,61.57
2019-04-07T01:35:51.535Z,61.17
2019-04-07T01:36:56.726Z,61.23
2019-04-07T01:38:01.507Z,61.83
2019-04-07T01:39:10.012Z,58.73
2019-04-07T01:40:23.536Z,61.20
2019-04-07T01:41:39.347Z,62.80
2019-04-07T01:43:01.724Z,62.17
2019-04-07T01:44:30.874Z,63.10
2019-04-07T01:45:54.595Z,62.03
2019-04-07T01:47:30.530Z,58.90
2019-04-07T01:48:57.460Z,62.43
2019-04-07T01:50:19.067Z,61.50
2019-04-07T01:51:41.065Z,58.97
2019-04-07T01:53:23.011Z,61.53
2019-04-07T01:54:34.736Z,65.80
2019-04-07T01:55:57.511Z,64.93
2019-04-07T01:57:15.901Z,62.23
2019-04-07T01:58:38.179Z,62.73
2019-04-07T02:00:01.964Z,64.07
2019-04-07T02:01:23.067Z,61.97
2019-04-07T02:02:46.720Z,62.50
2019-04-07T02:04:09.367Z,62.33
2019-04-07T02:05:39.255Z,60.17
2019-04-07T02:07:02.113Z,62.43
2019-04-07T02:08:28.525Z,61.10
2019-04-07T02:09:51.401Z,62.20
2019-04-07T02:11:14.573Z,59.63
2019-04-07T02:12:41.353Z,60.10
2019-04-07T02:14:08.651Z,60.70
2019-04-07T02:15:23.999Z,57.90
2019-04-07T02:16:51.207Z,58.17
2019-04-07T02:18:03.646Z,59.10
2019-04-07T02:19:21.579Z,58.83
2019-04-07T02:21:00.872Z,58.60
2019-04-07T02:22:34.387Z,59.23
2019-04-07T02:23:50.970Z,58.17
2019-04-07T02:25:17.297Z,59.30
2019-04-07T02:26:34.331Z,60.27
2019-04-07T02:27:54.583Z,59.73
2019-04-07T02:29:17.043Z,60.27
2019-04-07T02:30:39.289Z,57.27
2019-04-07T02:32:00.190Z,58.80
2019-04-07T02:33:22.882Z,58.90
2019-04-07T02:34:49.544Z,58.40
2019-04-07T02:36:13.281Z,57.53
2019-04-07T02:37:24.663Z,61.17
2019-04-07T02:39:03.481Z,59.10
2019-04-07T02:40:26.721Z,59.10
2019-04-07T02:41:42.130Z,58.23
2019-04-07T02:42:51.950Z,60.07
2019-04-07T02:44:25.330Z,60.33
2019-04-07T02:45:49.315Z,61.73
2019-04-07T02:47:08.413Z,61.23
2019-04-07T02:48:39.450Z,61.87
2019-04-07T02:50:05.626Z,61.30
2019-04-07T02:51:26.294Z,61.30
2019-04-07T02:53:05.741Z,59.30
2019-04-07T02:54:47.569Z,61.77
2019-04-07T02:56:11.116Z,58.77
2019-04-07T02:57:36.003Z,58.03
2019-04-07T02:58:59.380Z,58.50
2019-04-07T03:00:25.934Z,59.87
2019-04-07T03:01:38.443Z,60.30
2019-04-07T03:03:08.749Z,64.80
2019-04-07T03:04:27.285Z,63.20
2019-04-07T03:05:58.295Z,59.77
2019-04-07T03:07:13.558Z,62.33
2019-04-07T03:08:37.802Z,57.73
2019-04-07T03:10:04.890Z,58.53
2019-04-07T03:11:21.247Z,57.37
2019-04-07T03:12:37.298Z,59.73
2019-04-07T03:13:54.066Z,59.87
2019-04-07T03:15:15.003Z,57.77
2019-04-07T03:16:38.136Z,59.47
2019-04-07T03:17:53.893Z,59.33
2019-04-07T03:19:04.598Z,59.97
2019-04-07T03:20:29.469Z,61.10
2019-04-07T03:21:56.202Z,62.07
2019-04-07T03:23:22.263Z,58.87
2019-04-07T03:24:42.781Z,57.77
2019-04-07T03:26:09.538Z,58.20
2019-04-07T03:27:42.347Z,54.60
2019-04-07T03:29:05.173Z,57.63
2019-04-07T03:30:49.258Z,58.70
2019-04-07T03:32:02.583Z,56.13
2019-04-07T03:33:45.289Z,58.67
2019-04-07T03:35:07.371Z,59.47
2019-04-07T03:36:30.073Z,60.40
2019-04-07T03:37:47.162Z,58.83
2019-04-07T03:38:59.276Z,60.37
2019-04-07T03:40:35.527Z,57.67
2019-04-07T03:41:45.883Z,58.33
2019-04-07T03:43:04.991Z,56.97
2019-04-07T03:44:14.761Z,57.73
2019-04-07T03:45:26.485Z,55.73
2019-04-07T03:46:49.496Z,57.83
2019-04-07T03:48:02.058Z,57.47
2019-04-07T03:49:23.562Z,57.03
2019-04-07T03:50:45.242Z,57.00
2019-04-07T03:52:09.917Z,58.20
2019-04-07T03:53:39.536Z,57.87
2019-04-07T03:54:55.076Z,56.60
2019-04-07T03:56:27.182Z,55.37
2019-04-07T03:57:47.713Z,56.53
2019-04-07T03:59:21.456Z,58.50
2019-04-07T04:01:35.382Z,57.47
2019-04-07T04:02:50.594Z,58.93
2019-04-07T04:04:10.656Z,57.93
2019-04-07T04:05:33.920Z,57.20
2019-04-07T04:07:21.711Z,56.97
2019-04-07T04:08:34.999Z,57.80
2019-04-07T04:09:44.103Z,55.93
2019-04-07T04:10:55.594Z,58.93
2019-04-07T04:12:25.721Z,61.07
2019-04-07T04:13:56.200Z,58.97
2019-04-07T04:15:04.074Z,55.93
2019-04-07T04:16:15.573Z,58.97
2019-04-07T04:17:20.029Z,58.77
2019-04-07T04:18:28.510Z,59.93
2019-04-07T04:19:33.665Z,59.13
2019-04-07T04:20:38.787Z,59.50
2019-04-07T04:21:45.595Z,58.97
2019-04-07T04:22:50.655Z,60.10
2019-04-07T04:23:55.181Z,57.47
2019-04-07T04:24:59.608Z,61.27
2019-04-07T04:26:04.442Z,61.73
2019-04-07T04:27:08.993Z,63.40
2019-04-07T04:28:14.315Z,60.87
2019-04-07T04:29:18.896Z,61.33
2019-04-07T04:30:23.583Z,59.73
2019-04-07T04:31:28.075Z,62.30
2019-04-07T04:32:32.896Z,58.63
2019-04-07T04:33:37.806Z,62.77
2019-04-07T04:34:45.000Z,61.57
2019-04-07T04:35:49.519Z,64.13
2019-04-07T04:36:54.498Z,60.87
2019-04-07T04:37:59.780Z,59.90
2019-04-07T04:39:08.127Z,60.97
2019-04-07T04:40:13.842Z,61.87
2019-04-07T04:41:18.978Z,61.47
2019-04-07T04:42:23.509Z,59.73
2019-04-07T04:43:27.914Z,62.53
2019-04-07T04:44:32.362Z,63.50
2019-04-07T04:45:36.833Z,63.53
2019-04-07T04:46:41.438Z,64.77
2019-04-07T04:47:46.437Z,62.47
2019-04-07T04:48:51.373Z,63.37
2019-04-07T04:49:56.264Z,61.50
2019-04-07T04:51:00.681Z,63.20
2019-04-07T04:52:05.342Z,62.30
2019-04-07T04:53:10.707Z,62.70
2019-04-07T04:54:15.369Z,61.67
2019-04-07T04:55:20.045Z,61.50
2019-04-07T04:56:24.565Z,61.43
2019-04-07T04:57:28.973Z,60.30
2019-04-07T04:58:33.388Z,61.13
2019-04-07T04:59:37.853Z,63.13
2019-04-07T05:00:42.860Z,62.93
2019-04-07T05:01:47.833Z,60.47
2019-04-07T05:02:52.525Z,60.87
2019-04-07T05:03:57.121Z,59.97
2019-04-07T05:05:02.587Z,62.27
2019-04-07T05:06:07.864Z,61.27
2019-04-07T05:07:12.767Z,61.63
2019-04-07T05:08:17.644Z,62.20
2019-04-07T05:09:22.122Z,62.03
2019-04-07T05:10:26.623Z,62.07
2019-04-07T05:11:31.574Z,62.37
2019-04-07T05:12:36.003Z,62.20
2019-04-07T05:13:41.140Z,62.33
2019-04-07T05:14:45.640Z,61.83
2019-04-07T05:15:50.237Z,62.70
2019-04-07T05:16:54.857Z,63.00
2019-04-07T05:17:59.210Z,61.60
2019-04-07T05:19:04.454Z,60.93
2019-04-07T05:20:09.210Z,62.60
2019-04-07T05:21:13.644Z,59.70
2019-04-07T05:22:17.993Z,65.43
2019-04-07T05:23:23.075Z,62.10
2019-04-07T05:24:27.565Z,62.80
2019-04-07T05:25:31.894Z,61.13
2019-04-07T05:26:36.548Z,60.63
2019-04-07T05:27:41.610Z,60.53
2019-04-07T05:28:46.159Z,60.17
2019-04-07T05:29:51.071Z,60.03
2019-04-07T05:30:55.510Z,60.37
2019-04-07T05:32:00.175Z,58.27
2019-04-07T05:33:05.535Z,60.53
2019-04-07T05:34:10.667Z,59.40
2019-04-07T05:35:15.400Z,57.80
2019-04-07T05:36:20.311Z,58.30
2019-04-07T05:37:25.329Z,60.10
2019-04-07T05:38:30.253Z,60.30
2019-04-07T05:39:34.804Z,57.17
2019-04-07T05:40:39.944Z,58.87
2019-04-07T05:41:45.029Z,58.83
2019-04-07T05:42:49.712Z,59.50
2019-04-07T05:43:54.232Z,58.67
2019-04-07T05:44:58.652Z,61.70
2019-04-07T05:46:05.875Z,57.07
2019-04-07T05:47:10.873Z,58.13
2019-04-07T05:48:18.518Z,59.27
2019-04-07T05:49:23.251Z,56.90
2019-04-07T05:50:28.758Z,59.73
2019-04-07T05:51:33.821Z,57.83
2019-04-07T05:52:39.860Z,56.20
2019-04-07T05:53:47.070Z,56.73
2019-04-07T05:54:51.531Z,56.97
2019-04-07T05:55:56.270Z,55.17
2019-04-07T05:57:01.569Z,55.13
2019-04-07T05:58:08.338Z,54.47
2019-04-07T05:59:13.913Z,55.50
2019-04-07T06:00:19.672Z,54.43
2019-04-07T06:01:24.614Z,55.73
2019-04-07T06:02:31.394Z,56.47
2019-04-07T06:03:38.727Z,52.10
2019-04-07T06:04:41.580Z,53.77
2019-04-07T06:05:50.017Z,51.57
2019-04-07T06:07:06.981Z,52.90
2019-04-07T06:08:18.715Z,53.00
2019-04-07T06:09:08.429Z,53.73
2019-04-07T06:10:13.332Z,51.47
2019-04-07T06:11:17.856Z,50.73
2019-04-07T06:12:22.672Z,52.60
2019-04-07T06:13:27.150Z,52.57
2019-04-07T06:14:31.588Z,50.63
2019-04-07T06:15:36.325Z,51.53
2019-04-07T06:16:40.703Z,51.90
2019-04-07T06:17:45.744Z,52.13
2019-04-07T06:18:50.318Z,50.23
2019-04-07T06:19:54.689Z,51.77
2019-04-07T06:20:59.462Z,51.87
2019-04-07T06:22:04.832Z,52.03
2019-04-07T06:23:10.021Z,50.23
2019-04-07T06:24:14.625Z,50.67
2019-04-07T06:25:19.096Z,48.73
2019-04-07T06:26:23.431Z,49.60
2019-04-07T06:27:29.638Z,49.93
2019-04-07T06:28:34.322Z,49.60
2019-04-07T06:29:38.966Z,48.37
2019-04-07T06:30:44.004Z,46.97
2019-04-07T06:31:49.400Z,48.07
2019-04-07T06:32:54.706Z,47.90
2019-04-07T06:33:59.876Z,47.97
2019-04-07T06:35:05.142Z,46.73
2019-04-07T06:36:09.565Z,46.10
2019-04-07T06:37:14.527Z,46.97
2019-04-07T06:38:29.598Z,46.87
2019-04-07T06:39:24.994Z,46.00
2019-04-07T06:40:29.410Z,46.33
2019-04-07T06:41:34.284Z,45.90
2019-04-07T06:42:38.799Z,45.67
2019-04-07T06:43:44.103Z,46.10
2019-04-07T06:44:51.074Z,46.93
2019-04-07T06:46:04.896Z,45.60
2019-04-07T06:47:15.959Z,45.47
2019-04-07T06:48:21.133Z,45.13
2019-04-07T06:49:47.071Z,44.43
2019-04-07T06:50:59.262Z,43.90
2019-04-07T06:52:25.998Z,43.47
2019-04-07T06:53:58.987Z,44.17
2019-04-07T06:55:33.301Z,45.87
2019-04-07T06:56:50.011Z,42.63
2019-04-07T06:58:12.680Z,43.43
2019-04-07T06:59:26.173Z,43.27
2019-04-07T07:00:49.153Z,43.03
2019-04-07T07:02:13.251Z,42.10
2019-04-07T07:03:36.061Z,41.83
2019-04-07T07:05:06.131Z,43.73
2019-04-07T07:06:26.842Z,43.00
2019-04-07T07:07:52.064Z,43.13
2019-04-07T07:09:07.492Z,43.00
2019-04-07T07:10:38.680Z,40.60
2019-04-07T07:11:58.799Z,41.67
2019-04-07T07:13:30.754Z,40.23
2019-04-07T07:15:03.383Z,38.87
2019-04-07T07:16:26.744Z,40.90
2019-04-07T07:17:39.158Z,42.53
2019-04-07T07:18:56.748Z,38.10
2019-04-07T07:20:08.223Z,40.37
2019-04-07T07:21:39.220Z,40.83
2019-04-07T07:22:46.571Z,39.83
2019-04-07T07:23:50.527Z,38.97
2019-04-07T07:24:58.027Z,39.33
2019-04-07T07:26:03.101Z,40.03
2019-04-07T07:27:10.101Z,41.53
2019-04-07T07:28:13.564Z,38.90
2019-04-07T07:29:19.012Z,39.10
2019-04-07T07:30:23.645Z,38.00
2019-04-07T07:31:28.312Z,35.97
2019-04-07T07:32:35.038Z,38.93
2019-04-07T07:33:41.452Z,38.30
2019-04-07T07:34:44.983Z,37.47
2019-04-07T07:35:49.493Z,37.60
2019-04-07T07:36:56.597Z,36.63
2019-04-07T07:38:00.265Z,36.17
2019-04-07T07:39:10.240Z,36.50
2019-04-07T07:40:16.595Z,35.07
2019-04-07T07:41:21.227Z,34.57
2019-04-07T07:42:25.700Z,36.30
2019-04-07T07:43:30.287Z,35.63
2019-04-07T07:44:38.165Z,37.03
2019-04-07T07:45:44.819Z,34.97
2019-04-07T07:46:49.114Z,37.17
2019-04-07T07:47:54.280Z,35.87
2019-04-07T07:49:01.757Z,35.27
2019-04-07T07:50:07.622Z,35.27
2019-04-07T07:51:13.841Z,35.07
2019-04-07T07:52:20.648Z,34.90
2019-04-07T07:53:27.210Z,33.03
2019-04-07T07:54:31.552Z,34.93
2019-04-07T07:55:37.642Z,35.23
2019-04-07T07:56:47.408Z,33.53
2019-04-07T07:57:49.107Z,34.40
2019-04-07T07:58:53.946Z,35.23
2019-04-07T07:59:58.603Z,35.20
2019-04-07T08:01:03.332Z,35.17
2019-04-07T08:02:08.608Z,33.93
2019-04-07T08:03:14.607Z,36.77
2019-04-07T08:04:19.170Z,34.80
2019-04-07T08:05:23.801Z,33.97
2019-04-07T08:06:28.415Z,32.37
2019-04-07T08:07:33.607Z,32.80
2019-04-07T08:08:38.204Z,32.80
2019-04-07T08:09:42.586Z,30.77
2019-04-07T08:10:47.386Z,30.00
2019-04-07T08:11:52.652Z,30.07
2019-04-07T08:12:57.476Z,29.83
2019-04-07T08:14:02.294Z,29.43
2019-04-07T08:15:07.224Z,29.03
2019-04-07T08:16:11.634Z,29.47
2019-04-07T08:17:16.214Z,28.83
2019-04-07T08:18:21.052Z,28.33
2019-04-07T08:19:29.358Z,27.43
2019-04-07T08:20:32.606Z,29.63
2019-04-07T08:21:37.160Z,29.30
2019-04-07T08:22:43.646Z,27.93
2019-04-07T08:23:48.193Z,26.17
2019-04-07T08:24:53.420Z,28.13
2019-04-07T08:25:59.061Z,28.40
2019-04-07T08:27:05.207Z,27.70
2019-04-07T08:28:09.688Z,27.50
2019-04-07T08:29:14.925Z,27.37
2019-04-07T08:30:20.107Z,25.37
2019-04-07T08:31:25.067Z,26.60
2019-04-07T08:32:31.944Z,28.83
2019-04-07T08:33:35.866Z,26.90
2019-04-07T08:34:40.413Z,26.07
2019-04-07T08:35:45.092Z,27.20
2019-04-07T08:36:49.529Z,24.93
2019-04-07T08:37:54.520Z,26.27
2019-04-07T08:38:59.560Z,24.87
2019-04-07T08:40:07.271Z,25.87
2019-04-07T08:41:12.765Z,30.77
2019-04-07T08:42:18.706Z,27.10
2019-04-07T08:43:23.834Z,25.80
2019-04-07T08:44:30.504Z,25.83
2019-04-07T08:45:36.016Z,28.03
2019-04-07T08:46:42.929Z,28.60
2019-04-07T08:47:48.873Z,26.03
2019-04-07T08:48:55.299Z,25.40
2019-04-07T08:49:59.842Z,25.43
2019-04-07T08:51:04.712Z,25.50
2019-04-07T08:52:11.491Z,25.43
2019-04-07T08:53:16.258Z,26.27
2019-04-07T08:54:21.504Z,25.97
2019-04-07T08:55:25.926Z,25.73
2019-04-07T08:56:31.001Z,23.87
2019-04-07T08:57:36.898Z,25.57
2019-04-07T08:58:41.496Z,25.27
2019-04-07T08:59:46.742Z,24.50
2019-04-07T09:00:53.830Z,24.20
2019-04-07T09:01:58.100Z,24.00
2019-04-07T09:03:07.767Z,23.23
2019-04-07T09:04:09.362Z,24.20
2019-04-07T09:05:14.105Z,24.03
2019-04-07T09:06:18.567Z,24.43
2019-04-07T09:07:24.406Z,25.20
2019-04-07T09:08:29.566Z,24.10
2019-04-07T09:09:37.142Z,24.67
2019-04-07T09:10:51.528Z,24.07
2019-04-07T09:11:57.288Z,24.30
2019-04-07T09:13:03.638Z,22.70
2019-04-07T09:14:08.768Z,22.93
2019-04-07T09:15:19.136Z,22.60
2019-04-07T09:16:31.860Z,22.67
2019-04-07T09:17:46.013Z,24.20
2019-04-07T09:19:12.428Z,22.90
2019-04-07T09:20:44.381Z,22.33
2019-04-07T09:21:54.854Z,23.07
2019-04-07T09:23:06.832Z,23.00
2019-04-07T09:24:37.078Z,24.00
2019-04-07T09:26:00.127Z,21.97
2019-04-07T09:27:18.234Z,22.17
2019-04-07T09:28:34.946Z,23.60
2019-04-07T09:29:48.813Z,21.90
2019-04-07T09:31:15.416Z,20.80
2019-04-07T09:32:34.815Z,22.50
2019-04-07T09:34:08.056Z,22.17
2019-04-07T09:35:30.947Z,20.77
2019-04-07T09:37:04.468Z,20.53
2019-04-07T09:38:30.417Z,20.67
2019-04-07T09:39:57.826Z,20.37
2019-04-07T09:41:02.824Z,21.23
2019-04-07T09:42:15.968Z,20.57
2019-04-07T09:43:34.852Z,20.93
2019-04-07T09:45:07.071Z,18.93
2019-04-07T09:46:15.162Z,19.87
2019-04-07T09:47:39.151Z,20.03
2019-04-07T09:49:03.349Z,23.73
2019-04-07T09:50:33.361Z,20.63
2019-04-07T09:51:44.012Z,20.60
2019-04-07T09:53:17.042Z,22.30
2019-04-07T09:54:34.838Z,22.63
2019-04-07T09:55:58.248Z,18.93
2019-04-07T09:57:23.559Z,19.40
2019-04-07T09:59:01.372Z,17.20
2019-04-07T10:01:06.879Z,18.57
2019-04-07T10:02:32.018Z,17.83
2019-04-07T10:04:07.122Z,19.47
2019-04-07T10:05:30.935Z,17.80
2019-04-07T10:06:59.369Z,16.70
2019-04-07T10:08:19.076Z,16.57
2019-04-07T10:09:42.022Z,18.70
2019-04-07T10:11:05.238Z,17.47
2019-04-07T10:12:18.503Z,17.63
2019-04-07T10:13:46.338Z,15.93
2019-04-07T10:15:15.445Z,14.87
2019-04-07T10:16:37.931Z,15.87
2019-04-07T10:18:06.312Z,14.97
2019-04-07T10:19:30.077Z,16.17
2019-04-07T10:21:05.809Z,15.37
2019-04-07T10:22:29.947Z,15.40
2019-04-07T10:23:45.636Z,15.80
2019-04-07T10:24:57.237Z,15.00
2019-04-07T10:26:26.943Z,16.53
2019-04-07T10:27:46.499Z,15.43
2019-04-07T10:28:56.646Z,14.90
2019-04-07T10:30:20.141Z,19.90
2019-04-07T10:31:30.528Z,16.07
2019-04-07T10:32:43.088Z,16.33
2019-04-07T10:34:06.127Z,14.73
2019-04-07T10:35:30.635Z,14.43
2019-04-07T10:36:43.858Z,15.40
2019-04-07T10:38:02.621Z,17.53
2019-04-07T10:39:16.370Z,15.93
2019-04-07T10:40:38.978Z,16.20
2019-04-07T10:42:01.550Z,15.20
2019-04-07T10:43:25.007Z,13.93
2019-04-07T10:44:37.743Z,15.73
2019-04-07T10:45:57.972Z,13.63
2019-04-07T10:47:30.983Z,13.53
2019-04-07T10:48:43.365Z,14.30
2019-04-07T10:50:20.007Z,12.80
2019-04-07T10:51:34.307Z,13.30
2019-04-07T10:53:17.003Z,14.57
2019-04-07T10:54:34.903Z,18.90
2019-04-07T10:55:45.257Z,15.27
2019-04-07T10:56:55.252Z,15.40
2019-04-07T10:58:21.964Z,14.37
2019-04-07T10:59:54.440Z,12.67
2019-04-07T11:01:17.886Z,12.50
2019-04-07T11:02:29.612Z,12.77
2019-04-07T11:03:53.949Z,12.40
2019-04-07T11:05:33.725Z,12.77
2019-04-07T11:07:00.069Z,12.07
2019-04-07T11:08:33.081Z,12.27
2019-04-07T11:10:03.761Z,13.97
2019-04-07T11:11:36.699Z,13.50
2019-04-07T11:12:58.182Z,13.10
2019-04-07T11:14:19.896Z,11.93
2019-04-07T11:15:35.203Z,12.20
2019-04-07T11:16:51.303Z,11.33
2019-04-07T11:18:33.737Z,12.97
2019-04-07T11:20:00.323Z,12.60
2019-04-07T11:21:16.697Z,12.70
2019-04-07T11:22:38.526Z,11.77
2019-04-07T11:24:03.890Z,11.53
2019-04-07T11:25:24.481Z,11.77
2019-04-07T11:26:47.526Z,12.00
2019-04-07T11:28:10.015Z,12.70
2019-04-07T11:29:33.688Z,12.67
2019-04-07T11:31:16.862Z,13.15
2019-04-07T11:32:28.875Z,11.68
2019-04-07T11:33:58.865Z,12.60
2019-04-07T11:35:17.436Z,12.68
2019-04-07T11:36:44.280Z,11.68
2019-04-07T11:38:08.206Z,10.98
2019-04-07T11:39:39.576Z,13.25
2019-04-07T11:41:02.564Z,12.55
2019-04-07T11:42:25.125Z,13.00
2019-04-07T11:43:35.931Z,11.60
2019-04-07T11:44:57.537Z,11.85
2019-04-07T11:46:24.387Z,12.15
2019-04-07T11:47:54.449Z,12.53
2019-04-07T11:49:18.299Z,11.63
2019-04-07T11:50:27.975Z,12.25
2019-04-07T11:51:46.732Z,12.23
2019-04-07T11:53:02.000Z,12.90
2019-04-07T11:54:16.449Z,12.25
2019-04-07T11:55:30.101Z,11.50
2019-04-07T11:56:56.538Z,12.65
2019-04-07T11:58:39.793Z,11.83
2019-04-07T12:00:01.210Z,10.55
2019-04-07T12:01:46.036Z,11.30
2019-04-07T12:03:11.657Z,10.55
2019-04-07T12:04:28.389Z,11.12
2019-04-07T12:06:01.354Z,11.75
2019-04-07T12:07:23.390Z,10.40
2019-04-07T12:08:51.565Z,9.60
2019-04-07T12:10:18.636Z,10.93
2019-04-07T12:11:57.216Z,10.25
2019-04-07T12:13:25.382Z,10.25
2019-04-07T12:14:54.741Z,9.60
2019-04-07T12:16:21.921Z,11.33
2019-04-07T12:17:46.387Z,10.28
2019-04-07T12:19:13.791Z,10.00
2019-04-07T12:20:42.169Z,9.95
2019-04-07T12:21:59.660Z,9.88
2019-04-07T12:23:10.932Z,9.08
2019-04-07T12:24:33.677Z,10.10
2019-04-07T12:25:48.228Z,9.95
2019-04-07T12:27:15.144Z,9.28
2019-04-07T12:28:38.690Z,9.60
2019-04-07T12:30:02.486Z,9.90
2019-04-07T12:31:20.769Z,9.93
2019-04-07T12:32:47.790Z,9.50
2019-04-07T12:34:15.393Z,9.33
2019-04-07T12:35:54.994Z,9.55
2019-04-07T12:37:07.923Z,9.10
2019-04-07T12:38:26.438Z,9.60
2019-04-07T12:39:51.017Z,10.18
2019-04-07T12:41:17.154Z,10.90
2019-04-07T12:42:23.274Z,9.85
2019-04-07T12:43:49.190Z,10.65
2019-04-07T12:45:11.244Z,10.85
2019-04-07T12:46:21.695Z,11.45
2019-04-07T12:48:00.275Z,9.33
2019-04-07T12:49:12.316Z,10.03
2019-04-07T12:50:30.600Z,9.90
2019-04-07T12:51:55.951Z,9.15
2019-04-07T12:53:32.160Z,9.03
2019-04-07T12:54:50.481Z,9.30
2019-04-07T12:56:31.712Z,9.40
2019-04-07T12:57:55.288Z,10.85
2019-04-07T12:59:07.988Z,9.35
2019-04-07T13:00:55.792Z,9.65
2019-04-07T13:02:07.864Z,9.05
2019-04-07T13:03:25.362Z,9.20
2019-04-07T13:04:35.408Z,9.15
2019-04-07T13:05:47.183Z,9.20
2019-04-07T13:07:15.266Z,8.68
2019-04-07T13:08:25.814Z,9.00
2019-04-07T13:09:38.048Z,9.68
2019-04-07T13:10:49.331Z,8.90
2019-04-07T13:12:09.085Z,9.60
2019-04-07T13:13:33.899Z,8.80
2019-04-07T13:14:47.646Z,8.55
2019-04-07T13:16:10.177Z,8.40
2019-04-07T13:17:36.750Z,8.95
2019-04-07T13:18:56.662Z,8.95
2019-04-07T13:20:13.329Z,8.68
2019-04-07T13:21:29.021Z,8.40
2019-04-07T13:22:50.806Z,9.18
2019-04-07T13:24:15.454Z,9.10
2019-04-07T13:25:25.432Z,9.20
2019-04-07T13:26:37.495Z,9.00
2019-04-07T13:27:55.428Z,8.88
2019-04-07T13:29:04.309Z,8.78
2019-04-07T13:30:24.511Z,9.03
2019-04-07T13:31:51.449Z,9.30
2019-04-07T13:33:20.482Z,8.83
2019-04-07T13:34:51.469Z,9.05
2019-04-07T13:36:13.911Z,8.90
2019-04-07T13:37:33.116Z,8.50
2019-04-07T13:38:43.158Z,8.95
2019-04-07T13:40:02.681Z,8.70
2019-04-07T13:41:36.699Z,9.15
2019-04-07T13:42:57.450Z,8.93
2019-04-07T13:44:07.616Z,8.28
2019-04-07T13:45:42.139Z,8.45
2019-04-07T13:47:06.335Z,9.25
2019-04-07T13:48:28.847Z,8.63
2019-04-07T13:49:51.418Z,8.68
2019-04-07T13:51:18.221Z,10.00
2019-04-07T13:52:34.408Z,9.63
2019-04-07T13:53:59.579Z,9.80
2019-04-07T13:55:10.761Z,10.90
2019-04-07T13:56:21.926Z,13.10
2019-04-07T13:57:49.324Z,13.00
2019-04-07T13:59:12.747Z,9.60
2019-04-07T14:00:28.306Z,9.98
2019-04-07T14:01:48.103Z,10.08
2019-04-07T14:03:01.412Z,9.48
2019-04-07T14:04:37.095Z,9.85
2019-04-07T14:06:02.361Z,9.55
2019-04-07T14:07:18.205Z,9.30
2019-04-07T14:08:32.146Z,8.80
2019-04-07T14:09:47.807Z,9.45
2019-04-07T14:11:10.131Z,9.20
2019-04-07T14:12:33.403Z,8.73
2019-04-07T14:14:09.658Z,8.60
2019-04-07T14:15:23.371Z,8.08
2019-04-07T14:16:46.421Z,8.05
2019-04-07T14:18:10.139Z,9.00
2019-04-07T14:19:21.858Z,11.00
2019-04-07T14:20:40.377Z,9.58
2019-04-07T14:21:58.870Z,8.63
2019-04-07T14:23:13.265Z,8.78
2019-04-07T14:24:23.892Z,8.60
2019-04-07T14:26:03.541Z,8.90
2019-04-07T14:27:17.612Z,9.00
2019-04-07T14:28:31.213Z,7.95
2019-04-07T14:29:42.738Z,8.20
2019-04-07T14:30:59.818Z,8.30
2019-04-07T14:32:23.059Z,8.65
2019-04-07T14:33:41.461Z,8.73
2019-04-07T14:34:55.450Z,8.50
2019-04-07T14:36:12.897Z,8.38
2019-04-07T14:37:24.006Z,8.23
2019-04-07T14:39:05.824Z,8.15
2019-04-07T14:40:18.351Z,8.20
2019-04-07T14:41:42.347Z,7.70
2019-04-07T14:43:09.348Z,7.83
2019-04-07T14:44:29.315Z,7.97
2019-04-07T14:45:47.540Z,8.68
2019-04-07T14:47:12.859Z,9.63
2019-04-07T14:48:33.738Z,8.68
2019-04-07T14:50:02.489Z,8.98
2019-04-07T14:51:21.865Z,8.63
2019-04-07T14:52:41.115Z,8.70
2019-04-07T14:54:04.736Z,8.85
2019-04-07T14:55:23.760Z,8.65
2019-04-07T14:56:42.145Z,8.55
2019-04-07T14:58:01.380Z,8.40
2019-04-07T14:59:13.769Z,8.35
2019-04-07T15:00:41.725Z,8.93
2019-04-07T15:01:53.690Z,8.40
2019-04-07T15:02:58.122Z,8.25
2019-04-07T15:04:02.572Z,8.35
2019-04-07T15:05:18.545Z,7.87
2019-04-07T15:06:25.915Z,8.48
2019-04-07T15:07:59.712Z,8.18
2019-04-07T15:09:16.641Z,8.73
2019-04-07T15:10:27.591Z,8.43
2019-04-07T15:11:45.634Z,8.55
2019-04-07T15:12:53.928Z,8.70
2019-04-07T15:14:00.696Z,9.00
2019-04-07T15:15:08.611Z,7.75
2019-04-07T15:16:11.339Z,8.10
2019-04-07T15:17:16.580Z,8.60
2019-04-07T15:18:21.579Z,8.75
2019-04-07T15:19:26.089Z,8.15
2019-04-07T15:20:31.162Z,8.58
2019-04-07T15:21:36.305Z,8.45
2019-04-07T15:22:41.069Z,8.50
2019-04-07T15:23:47.384Z,8.50
2019-04-07T15:24:52.553Z,8.65
2019-04-07T15:25:56.928Z,8.80
2019-04-07T15:27:01.537Z,8.55
2019-04-07T15:28:06.800Z,8.85
2019-04-07T15:29:11.381Z,9.98
2019-04-07T15:30:17.029Z,8.63
2019-04-07T15:31:21.704Z,8.95
2019-04-07T15:32:28.625Z,8.78
2019-04-07T15:33:33.970Z,8.15
2019-04-07T15:34:40.992Z,9.43
2019-04-07T15:35:48.686Z,8.63
2019-04-07T15:36:51.071Z,9.48
2019-04-07T15:37:55.693Z,8.95
2019-04-07T15:39:01.150Z,9.00
2019-04-07T15:40:07.246Z,9.90
2019-04-07T15:41:15.596Z,9.15
2019-04-07T15:42:33.058Z,9.23
2019-04-07T15:43:25.404Z,9.45
2019-04-07T15:44:29.898Z,9.70
2019-04-07T15:45:34.293Z,8.90
2019-04-07T15:46:38.686Z,9.08
2019-04-07T15:47:43.039Z,8.08
2019-04-07T15:48:48.375Z,9.10
2019-04-07T15:49:52.895Z,9.13
2019-04-07T15:51:00.803Z,10.25
2019-04-07T15:52:07.769Z,9.58
2019-04-07T15:53:09.322Z,9.05
2019-04-07T15:54:14.590Z,8.50
2019-04-07T15:55:19.260Z,10.23
2019-04-07T15:56:24.032Z,10.23
2019-04-07T15:57:29.042Z,10.08
2019-04-07T15:58:33.830Z,9.20
2019-04-07T15:59:38.322Z,9.45